createdAt,value
2022-09-14T00:00:39.597Z,23.29
2022-09-14T00:01:41.322Z,23.29
2022-09-14T00:02:42.890Z,23.28
2022-09-14T00:03:44.541Z,23.25
2022-09-14T00:04:46.003Z,23.24
2022-09-14T00:05:47.470Z,23.23
2022-09-14T00:06:49.470Z,23.20
2022-09-14T00:07:50.923Z,23.15
2022-09-14T00:08:52.913Z,23.11
2022-09-14T00:09:54.357Z,23.06
2022-09-14T00:10:55.806Z,23.04
2022-09-14T00:11:57.307Z,23.04
2022-09-14T00:13:00.202Z,23.05
2022-09-14T00:14:01.937Z,23.04
2022-09-14T00:15:03.610Z,23.04
2022-09-14T00:16:05.742Z,23.05
2022-09-14T00:17:07.444Z,23.05
2022-09-14T00:18:09.606Z,23.05
2022-09-14T00:19:18.312Z,23.06
2022-09-14T00:20:19.887Z,23.07
2022-09-14T00:21:21.582Z,23.06
2022-09-14T00:22:23.038Z,23.07
2022-09-14T00:23:24.514Z,23.06
2022-09-14T00:24:26.778Z,23.07
2022-09-14T00:25:28.335Z,23.06
2022-09-14T00:26:29.791Z,23.07
2022-09-14T00:27:31.259Z,23.05
2022-09-14T00:28:37.246Z,23.08
2022-09-14T00:29:38.845Z,23.06
2022-09-14T00:30:41.619Z,23.08
2022-09-14T00:31:43.197Z,23.08
2022-09-14T00:32:44.666Z,23.08
2022-09-14T00:33:47.509Z,23.09
2022-09-14T00:34:48.980Z,23.09
2022-09-14T00:35:50.541Z,23.08
2022-09-14T00:36:52.069Z,23.10
2022-09-14T00:37:53.562Z,23.11
2022-09-14T00:38:56.514Z,23.11
2022-09-14T00:39:58.185Z,23.11
2022-09-14T00:40:59.802Z,23.11
2022-09-14T00:42:01.424Z,23.11
2022-09-14T00:43:02.947Z,23.11
2022-09-14T00:44:04.402Z,23.10
2022-09-14T00:45:14.216Z,23.10
2022-09-14T00:46:15.730Z,23.10
2022-09-14T00:47:17.182Z,23.10
2022-09-14T00:48:18.905Z,23.02
2022-09-14T00:49:40.759Z,23.08
2022-09-14T00:50:42.282Z,23.08
2022-09-14T00:51:45.823Z,23.08
2022-09-14T00:52:47.942Z,23.08
2022-09-14T00:53:49.458Z,23.07
2022-09-14T00:54:50.891Z,23.06
2022-09-14T00:55:54.076Z,23.07
2022-09-14T00:56:56.283Z,23.06
2022-09-14T00:57:57.991Z,23.06
2022-09-14T00:58:59.901Z,23.05
2022-09-14T01:00:01.419Z,23.04
2022-09-14T01:01:02.945Z,23.04
2022-09-14T01:02:04.907Z,23.03
2022-09-14T01:03:06.416Z,23.04
2022-09-14T01:04:07.934Z,23.03
2022-09-14T01:05:10.528Z,23.01
2022-09-14T01:06:12.029Z,23.01
2022-09-14T01:07:22.410Z,23.00
2022-09-14T01:08:32.767Z,23.00
2022-09-14T01:09:46.094Z,23.01
2022-09-14T01:11:06.458Z,22.99
2022-09-14T01:12:26.776Z,22.99
2022-09-14T01:13:33.213Z,22.99
2022-09-14T01:14:53.296Z,22.98
2022-09-14T01:15:57.265Z,22.97
2022-09-14T01:17:04.637Z,22.96
2022-09-14T01:18:08.390Z,22.96
2022-09-14T01:19:33.247Z,22.96
2022-09-14T01:21:00.926Z,22.95
2022-09-14T01:22:05.905Z,22.96
2022-09-14T01:23:14.723Z,22.95
2022-09-14T01:24:30.631Z,22.95
2022-09-14T01:25:41.376Z,22.96
2022-09-14T01:26:48.760Z,22.95
2022-09-14T01:27:51.482Z,22.87
2022-09-14T01:28:52.998Z,22.94
2022-09-14T01:29:54.435Z,22.94
2022-09-14T01:30:55.934Z,22.95
2022-09-14T01:32:01.944Z,22.95
2022-09-14T01:33:08.117Z,22.95
2022-09-14T01:34:12.147Z,22.95
2022-09-14T01:35:16.691Z,22.94
2022-09-14T01:36:18.314Z,22.94
2022-09-14T01:37:22.459Z,22.95
2022-09-14T01:38:28.127Z,22.94
2022-09-14T01:39:29.593Z,22.93
2022-09-14T01:40:34.937Z,22.95
2022-09-14T01:41:36.438Z,22.95
2022-09-14T01:42:38.514Z,22.95
2022-09-14T01:43:40.990Z,22.95
2022-09-14T01:44:43.048Z,22.95
2022-09-14T01:45:46.849Z,22.95
2022-09-14T01:46:53.874Z,22.94
2022-09-14T01:47:56.145Z,22.94
2022-09-14T01:49:03.522Z,22.94
2022-09-14T01:50:11.786Z,22.94
2022-09-14T01:51:13.850Z,22.94
2022-09-14T01:52:16.760Z,22.94
2022-09-14T01:53:29.385Z,22.93
2022-09-14T01:54:37.182Z,22.91
2022-09-14T01:55:40.387Z,22.92
2022-09-14T01:57:08.371Z,22.90
2022-09-14T01:58:11.920Z,22.89
2022-09-14T01:59:14.769Z,22.89
2022-09-14T02:00:16.903Z,22.89
2022-09-14T02:01:20.213Z,22.89
2022-09-14T02:02:29.103Z,22.89
2022-09-14T02:03:37.782Z,22.88
2022-09-14T02:04:43.483Z,22.88
2022-09-14T02:05:54.008Z,22.88
2022-09-14T02:06:56.536Z,22.88
2022-09-14T02:07:58.035Z,22.87
2022-09-14T02:09:00.312Z,22.86
2022-09-14T02:10:01.952Z,22.86
2022-09-14T02:11:03.417Z,22.85
2022-09-14T02:12:05.030Z,22.86
2022-09-14T02:13:07.165Z,22.85
2022-09-14T02:14:08.722Z,22.78
2022-09-14T02:15:10.794Z,22.84
2022-09-14T02:16:12.358Z,22.85
2022-09-14T02:17:13.932Z,22.84
2022-09-14T02:18:15.428Z,22.85
2022-09-14T02:19:20.524Z,22.82
2022-09-14T02:20:29.767Z,22.83
2022-09-14T02:21:31.846Z,22.83
2022-09-14T02:22:33.369Z,22.82
2022-09-14T02:23:35.310Z,22.82
2022-09-14T02:24:36.791Z,22.82
2022-09-14T02:25:41.001Z,22.80
2022-09-14T02:26:42.689Z,22.80
2022-09-14T02:27:44.123Z,22.80
2022-09-14T02:28:47.642Z,22.79
2022-09-14T02:29:49.187Z,22.81
2022-09-14T02:31:13.029Z,22.79
2022-09-14T02:32:20.487Z,22.81
2022-09-14T02:33:22.033Z,22.78
2022-09-14T02:34:23.730Z,22.77
2022-09-14T02:35:41.722Z,22.77
2022-09-14T02:36:43.260Z,22.75
2022-09-14T02:37:44.840Z,22.74
2022-09-14T02:39:08.958Z,22.74
2022-09-14T02:40:13.762Z,22.74
2022-09-14T02:41:18.967Z,22.73
2022-09-14T02:42:20.434Z,22.73
2022-09-14T02:43:25.846Z,22.72
2022-09-14T02:44:27.273Z,22.72
2022-09-14T02:45:29.626Z,22.70
2022-09-14T02:46:38.659Z,22.69
2022-09-14T02:47:55.468Z,22.68
2022-09-14T02:49:02.101Z,22.66
2022-09-14T02:50:08.210Z,22.66
2022-09-14T02:51:18.926Z,22.65
2022-09-14T02:52:37.535Z,22.65
2022-09-14T02:53:39.008Z,22.65
2022-09-14T02:54:43.460Z,22.64
2022-09-14T02:55:51.815Z,22.62
2022-09-14T02:56:53.298Z,22.63
2022-09-14T02:58:10.403Z,22.61
2022-09-14T02:59:11.888Z,22.63
2022-09-14T03:00:13.611Z,22.63
2022-09-14T03:01:16.371Z,22.63
2022-09-14T03:02:18.034Z,22.64
2022-09-14T03:03:20.537Z,22.63
2022-09-14T03:04:22.128Z,22.64
2022-09-14T03:05:23.607Z,22.65
2022-09-14T03:06:25.080Z,22.65
2022-09-14T03:07:26.548Z,22.65
2022-09-14T03:08:28.068Z,22.64
2022-09-14T03:09:29.503Z,22.65
2022-09-14T03:10:31.692Z,22.65
2022-09-14T03:11:33.203Z,22.65
2022-09-14T03:12:34.684Z,22.65
2022-09-14T03:13:36.309Z,22.65
2022-09-14T03:14:37.834Z,22.65
2022-09-14T03:15:39.468Z,22.64
2022-09-14T03:16:40.979Z,22.65
2022-09-14T03:17:46.311Z,22.66
2022-09-14T03:18:47.982Z,22.66
2022-09-14T03:19:49.812Z,22.66
2022-09-14T03:20:51.368Z,22.67
2022-09-14T03:21:52.824Z,22.67
2022-09-14T03:22:54.348Z,22.68
2022-09-14T03:23:57.774Z,22.68
2022-09-14T03:24:59.212Z,22.68
2022-09-14T03:26:00.667Z,22.67
2022-09-14T03:27:02.172Z,22.68
2022-09-14T03:28:03.684Z,22.69
2022-09-14T03:29:05.612Z,22.69
2022-09-14T03:30:07.686Z,22.69
2022-09-14T03:31:09.788Z,22.69
2022-09-14T03:32:12.420Z,22.69
2022-09-14T03:33:15.369Z,22.68
2022-09-14T03:34:16.849Z,22.67
2022-09-14T03:35:18.626Z,22.67
2022-09-14T03:36:20.146Z,22.67
2022-09-14T03:37:21.575Z,22.69
2022-09-14T03:38:23.155Z,22.67
2022-09-14T03:39:24.915Z,22.67
2022-09-14T03:40:26.480Z,22.66
2022-09-14T03:41:28.116Z,22.67
2022-09-14T03:42:29.655Z,22.66
2022-09-14T03:43:31.371Z,22.67
2022-09-14T03:44:32.880Z,22.68
2022-09-14T03:45:36.331Z,22.66
2022-09-14T03:46:37.922Z,22.66
2022-09-14T03:47:39.731Z,22.65
2022-09-14T03:48:41.188Z,22.65
2022-09-14T03:49:42.635Z,22.65
2022-09-14T03:50:44.094Z,22.65
2022-09-14T03:51:45.570Z,22.66
2022-09-14T03:52:47.161Z,22.66
2022-09-14T03:53:48.683Z,22.65
2022-09-14T03:54:50.231Z,22.66
2022-09-14T03:55:51.762Z,22.65
2022-09-14T03:56:53.311Z,22.66
2022-09-14T03:57:55.155Z,22.66
2022-09-14T03:58:56.738Z,22.66
2022-09-14T03:59:58.296Z,22.65
2022-09-14T04:01:06.102Z,22.64
2022-09-14T04:02:07.654Z,22.65
2022-09-14T04:03:09.373Z,22.65
2022-09-14T04:04:10.855Z,22.65
2022-09-14T04:05:12.331Z,22.66
2022-09-14T04:06:14.242Z,22.64
2022-09-14T04:07:15.875Z,22.65
2022-09-14T04:08:17.347Z,22.65
2022-09-14T04:09:19.377Z,22.64
2022-09-14T04:10:20.856Z,22.65
2022-09-14T04:11:23.011Z,22.65
2022-09-14T04:12:24.532Z,22.64
2022-09-14T04:13:26.103Z,22.64
2022-09-14T04:14:27.671Z,22.64
2022-09-14T04:15:29.354Z,22.64
2022-09-14T04:16:30.969Z,22.65
2022-09-14T04:17:32.556Z,22.65
2022-09-14T04:18:34.030Z,22.65
2022-09-14T04:19:37.525Z,22.64
2022-09-14T04:20:39.060Z,22.66
2022-09-14T04:21:40.490Z,22.65
2022-09-14T04:22:41.991Z,22.65
2022-09-14T04:24:03.442Z,22.64
2022-09-14T04:25:05.107Z,22.64
2022-09-14T04:26:10.128Z,22.64
2022-09-14T04:27:11.670Z,22.63
2022-09-14T04:28:20.861Z,22.62
2022-09-14T04:29:22.486Z,22.62
2022-09-14T04:30:24.070Z,22.63
2022-09-14T04:31:25.715Z,22.64
2022-09-14T04:32:29.736Z,22.63
2022-09-14T04:33:35.195Z,22.63
2022-09-14T04:34:36.918Z,22.63
2022-09-14T04:35:38.518Z,22.63
2022-09-14T04:36:40.044Z,22.61
2022-09-14T04:37:41.503Z,22.61
2022-09-14T04:38:43.128Z,22.61
2022-09-14T04:39:44.713Z,22.62
2022-09-14T04:40:46.224Z,22.61
2022-09-14T04:41:47.772Z,22.61
2022-09-14T04:42:49.234Z,22.60
2022-09-14T04:43:50.953Z,22.60
2022-09-14T04:44:52.683Z,22.59
2022-09-14T04:45:54.202Z,22.59
2022-09-14T04:46:55.675Z,22.60
2022-09-14T04:47:57.128Z,22.60
2022-09-14T04:48:58.614Z,22.60
2022-09-14T04:50:00.080Z,22.60
2022-09-14T04:51:14.415Z,22.60
2022-09-14T04:52:15.895Z,22.59
2022-09-14T04:53:17.323Z,22.59
2022-09-14T04:54:18.928Z,22.60
2022-09-14T04:55:20.411Z,22.60
2022-09-14T04:56:22.497Z,22.60
2022-09-14T04:57:24.017Z,22.60
2022-09-14T04:58:25.490Z,22.60
2022-09-14T04:59:26.964Z,22.60
2022-09-14T05:00:29.624Z,22.60
2022-09-14T05:01:35.536Z,22.60
2022-09-14T05:02:40.010Z,22.59
2022-09-14T05:03:41.706Z,22.59
2022-09-14T05:04:43.519Z,22.60
2022-09-14T05:05:45.022Z,22.61
2022-09-14T05:06:46.540Z,22.60
2022-09-14T05:07:48.038Z,22.60
2022-09-14T05:08:49.580Z,22.60
2022-09-14T05:09:51.065Z,22.60
2022-09-14T05:10:54.874Z,22.59
2022-09-14T05:11:56.424Z,22.59
2022-09-14T05:12:57.934Z,22.60
2022-09-14T05:13:59.494Z,22.60
2022-09-14T05:15:00.955Z,22.59
2022-09-14T05:16:08.959Z,22.58
2022-09-14T05:17:11.118Z,22.58
2022-09-14T05:18:12.848Z,22.57
2022-09-14T05:19:15.191Z,22.57
2022-09-14T05:20:16.659Z,22.57
2022-09-14T05:21:18.815Z,22.56
2022-09-14T05:22:21.453Z,22.57
2022-09-14T05:23:22.912Z,22.55
2022-09-14T05:24:24.588Z,22.56
2022-09-14T05:25:27.063Z,22.56
2022-09-14T05:26:29.139Z,22.55
2022-09-14T05:27:31.352Z,22.55
2022-09-14T05:28:33.086Z,22.55
2022-09-14T05:29:34.748Z,22.56
2022-09-14T05:30:39.478Z,22.57
2022-09-14T05:31:40.994Z,22.50
2022-09-14T05:32:42.523Z,22.57
2022-09-14T05:33:44.061Z,22.57
2022-09-14T05:34:45.537Z,22.57
2022-09-14T05:35:47.218Z,22.58
2022-09-14T05:36:48.667Z,22.58
2022-09-14T05:37:50.168Z,22.58
2022-09-14T05:38:51.631Z,22.58
2022-09-14T05:39:53.311Z,22.59
2022-09-14T05:40:55.159Z,22.59
2022-09-14T05:41:56.791Z,22.59
2022-09-14T05:42:58.311Z,22.58
2022-09-14T05:43:59.832Z,22.59
2022-09-14T05:45:01.405Z,22.60
2022-09-14T05:46:03.638Z,22.60
2022-09-14T05:47:05.135Z,22.60
2022-09-14T05:48:06.658Z,22.60
2022-09-14T05:49:08.185Z,22.60
2022-09-14T05:50:09.793Z,22.59
2022-09-14T05:51:13.867Z,22.60
2022-09-14T05:52:15.536Z,22.59
2022-09-14T05:53:16.980Z,22.53
2022-09-14T05:54:18.527Z,22.59
2022-09-14T05:55:20.311Z,22.58
2022-09-14T05:56:22.220Z,22.58
2022-09-14T05:57:23.691Z,22.58
2022-09-14T05:58:25.155Z,22.59
2022-09-14T05:59:26.678Z,22.59
2022-09-14T06:00:29.451Z,22.58
2022-09-14T06:01:32.602Z,22.58
2022-09-14T06:02:34.302Z,22.57
2022-09-14T06:03:35.805Z,22.57
2022-09-14T06:04:37.371Z,22.57
2022-09-14T06:05:38.860Z,22.57
2022-09-14T06:06:40.438Z,22.57
2022-09-14T06:07:41.959Z,22.58
2022-09-14T06:08:43.472Z,22.58
2022-09-14T06:09:44.899Z,22.57
2022-09-14T06:10:46.493Z,22.57
2022-09-14T06:11:47.980Z,22.56
2022-09-14T06:12:52.308Z,22.57
2022-09-14T06:13:56.404Z,22.58
2022-09-14T06:14:57.899Z,22.58
2022-09-14T06:16:05.834Z,22.58
2022-09-14T06:17:07.262Z,22.57
2022-09-14T06:18:08.710Z,22.57
2022-09-14T06:19:11.380Z,22.57
2022-09-14T06:20:12.820Z,22.56
2022-09-14T06:21:19.156Z,22.54
2022-09-14T06:22:20.818Z,22.55
2022-09-14T06:23:22.363Z,22.54
2022-09-14T06:24:23.814Z,22.55
2022-09-14T06:25:25.457Z,22.54
2022-09-14T06:26:26.974Z,22.54
2022-09-14T06:27:28.510Z,22.54
2022-09-14T06:28:30.118Z,22.53
2022-09-14T06:29:31.846Z,22.54
2022-09-14T06:30:33.303Z,22.53
2022-09-14T06:31:34.762Z,22.54
2022-09-14T06:32:36.231Z,22.55
2022-09-14T06:33:37.740Z,22.54
2022-09-14T06:34:39.198Z,22.55
2022-09-14T06:35:42.124Z,22.55
2022-09-14T06:36:44.786Z,22.55
2022-09-14T06:37:46.227Z,22.55
2022-09-14T06:38:48.894Z,22.54
2022-09-14T06:39:50.476Z,22.54
2022-09-14T06:40:56.887Z,22.53
2022-09-14T06:41:58.411Z,22.53
2022-09-14T06:43:03.343Z,22.53
2022-09-14T06:44:04.849Z,22.54
2022-09-14T06:45:06.683Z,22.53
2022-09-14T06:46:10.266Z,22.54
2022-09-14T06:47:11.695Z,22.54
2022-09-14T06:48:13.167Z,22.56
2022-09-14T06:49:20.531Z,22.56
2022-09-14T06:50:22.023Z,22.56
2022-09-14T06:51:28.899Z,22.57
2022-09-14T06:52:33.686Z,22.56
2022-09-14T06:53:35.420Z,22.58
2022-09-14T06:54:36.863Z,22.58
2022-09-14T06:55:38.342Z,22.59
2022-09-14T06:56:40.081Z,22.59
2022-09-14T06:57:43.081Z,22.60
2022-09-14T06:58:44.806Z,22.61
2022-09-14T06:59:46.303Z,22.61
2022-09-14T07:00:47.838Z,22.61
2022-09-14T07:01:52.450Z,22.63
2022-09-14T07:02:55.742Z,22.63
2022-09-14T07:03:58.111Z,22.64
2022-09-14T07:05:00.093Z,22.64
2022-09-14T07:06:02.448Z,22.64
2022-09-14T07:07:03.931Z,22.64
2022-09-14T07:08:08.973Z,22.65
2022-09-14T07:09:13.442Z,22.64
2022-09-14T07:10:14.968Z,22.66
2022-09-14T07:11:17.266Z,22.66
2022-09-14T07:12:18.811Z,22.65
2022-09-14T07:13:20.270Z,22.66
2022-09-14T07:14:21.732Z,22.67
2022-09-14T07:15:23.215Z,22.67
2022-09-14T07:16:27.325Z,22.68
2022-09-14T07:17:28.794Z,22.69
2022-09-14T07:18:34.052Z,22.71
2022-09-14T07:19:35.490Z,22.71
2022-09-14T07:20:36.967Z,22.71
2022-09-14T07:21:38.514Z,22.72
2022-09-14T07:22:40.004Z,22.69
2022-09-14T07:23:42.263Z,22.68
2022-09-14T07:24:43.721Z,22.70
2022-09-14T07:25:45.159Z,22.69
2022-09-14T07:26:46.640Z,22.70
2022-09-14T07:27:48.174Z,22.72
2022-09-14T07:28:50.899Z,22.73
2022-09-14T07:29:52.359Z,22.74
2022-09-14T07:30:58.357Z,22.74
2022-09-14T07:32:00.407Z,22.75
2022-09-14T07:33:01.911Z,22.69
2022-09-14T07:34:03.909Z,22.76
2022-09-14T07:35:05.441Z,22.76
2022-09-14T07:36:07.739Z,22.76
2022-09-14T07:37:09.354Z,22.76
2022-09-14T07:38:10.789Z,22.75
2022-09-14T07:39:13.507Z,22.74
2022-09-14T07:40:15.012Z,22.74
2022-09-14T07:41:16.549Z,22.72
2022-09-14T07:42:18.026Z,22.71
2022-09-14T07:43:19.471Z,22.71
2022-09-14T07:44:20.929Z,22.70
2022-09-14T07:45:22.429Z,22.72
2022-09-14T07:46:23.933Z,22.72
2022-09-14T07:47:25.466Z,22.74
2022-09-14T07:48:26.916Z,22.76
2022-09-14T07:49:28.408Z,22.78
2022-09-14T07:50:29.891Z,22.79
2022-09-14T07:51:31.534Z,22.80
2022-09-14T07:52:37.979Z,22.82
2022-09-14T07:53:42.631Z,22.84
2022-09-14T07:54:44.313Z,22.87
2022-09-14T07:55:45.804Z,22.89
2022-09-14T07:56:47.431Z,22.92
2022-09-14T07:57:56.616Z,22.93
2022-09-14T07:59:11.860Z,22.98
2022-09-14T08:00:19.120Z,23.00
2022-09-14T08:01:21.918Z,22.95
2022-09-14T08:02:24.485Z,23.07
2022-09-14T08:03:26.181Z,23.10
2022-09-14T08:04:27.614Z,23.12
2022-09-14T08:05:29.067Z,23.14
2022-09-14T08:06:30.652Z,23.16
2022-09-14T08:07:32.082Z,23.20
2022-09-14T08:08:34.814Z,23.20
2022-09-14T08:09:47.697Z,23.22
2022-09-14T08:10:49.127Z,23.24
2022-09-14T08:11:50.630Z,23.25
2022-09-14T08:12:52.618Z,23.27
2022-09-14T08:13:55.156Z,23.28
2022-09-14T08:14:56.582Z,23.29
2022-09-14T08:16:00.858Z,23.31
2022-09-14T08:17:02.406Z,23.31
2022-09-14T08:18:03.873Z,23.32
2022-09-14T08:19:05.771Z,23.32
2022-09-14T08:20:07.331Z,23.33
2022-09-14T08:21:09.811Z,23.33
2022-09-14T08:22:11.287Z,23.34
2022-09-14T08:23:13.053Z,23.34
2022-09-14T08:24:16.025Z,23.36
2022-09-14T08:25:17.499Z,23.33
2022-09-14T08:26:19.670Z,23.31
2022-09-14T08:27:21.086Z,23.29
2022-09-14T08:28:22.498Z,23.28
2022-09-14T08:29:23.963Z,23.28
2022-09-14T08:30:25.447Z,23.29
2022-09-14T08:31:27.326Z,23.28
2022-09-14T08:32:28.847Z,23.26
2022-09-14T08:33:31.048Z,23.28
2022-09-14T08:34:32.473Z,23.27
2022-09-14T08:35:56.375Z,23.28
2022-09-14T08:36:55.286Z,23.28
2022-09-14T08:37:56.703Z,23.28
2022-09-14T08:38:58.230Z,23.29
2022-09-14T08:39:59.685Z,23.26
2022-09-14T08:41:05.971Z,23.20
2022-09-14T08:42:09.182Z,23.27
2022-09-14T08:43:11.381Z,23.31
2022-09-14T08:44:15.748Z,23.29
2022-09-14T08:45:17.158Z,23.30
2022-09-14T08:46:31.743Z,23.28
2022-09-14T08:47:36.144Z,23.27
2022-09-14T08:48:37.962Z,23.24
2022-09-14T08:49:59.665Z,23.26
2022-09-14T08:51:01.105Z,23.29
2022-09-14T08:52:02.540Z,23.25
2022-09-14T08:53:05.633Z,23.26
2022-09-14T08:54:07.295Z,23.28
2022-09-14T08:55:17.482Z,23.30
2022-09-14T08:56:21.504Z,23.33
2022-09-14T08:57:26.384Z,23.36
2022-09-14T08:58:48.449Z,23.34
2022-09-14T09:00:11.586Z,23.33
2022-09-14T09:01:16.336Z,23.34
2022-09-14T09:02:24.194Z,23.37
2022-09-14T09:03:28.284Z,23.36
2022-09-14T09:04:29.758Z,23.34
2022-09-14T09:05:43.169Z,23.36
2022-09-14T09:06:53.918Z,23.36
2022-09-14T09:07:58.270Z,23.40
2022-09-14T09:09:05.328Z,23.43
2022-09-14T09:10:06.848Z,23.48
2022-09-14T09:11:10.184Z,23.49
2022-09-14T09:12:15.329Z,23.54
2022-09-14T09:13:19.153Z,23.57
2022-09-14T09:14:20.517Z,23.58
2022-09-14T09:15:21.923Z,23.62
2022-09-14T09:16:24.080Z,23.60
2022-09-14T09:17:25.808Z,23.62
2022-09-14T09:18:36.319Z,23.64
2022-09-14T09:19:38.873Z,23.67
2022-09-14T09:20:40.871Z,23.69
2022-09-14T09:21:43.804Z,23.71
2022-09-14T09:22:47.028Z,23.72
2022-09-14T09:23:48.427Z,23.72
2022-09-14T09:24:51.621Z,23.73
2022-09-14T09:25:59.084Z,23.73
2022-09-14T09:27:00.893Z,23.75
2022-09-14T09:28:02.976Z,23.76
2022-09-14T09:29:06.674Z,23.76
2022-09-14T09:30:26.830Z,23.77
2022-09-14T09:31:33.326Z,23.77
2022-09-14T09:32:58.539Z,23.75
2022-09-14T09:34:27.881Z,23.73
2022-09-14T09:35:41.866Z,23.70
2022-09-14T09:37:04.894Z,23.69
2022-09-14T09:38:12.955Z,23.68
2022-09-14T09:39:14.474Z,23.63
2022-09-14T09:40:19.969Z,23.60
2022-09-14T09:41:23.019Z,23.59
2022-09-14T09:42:25.330Z,23.58
2022-09-14T09:43:45.723Z,23.59
2022-09-14T09:45:03.275Z,23.58
2022-09-14T09:46:06.878Z,23.59
2022-09-14T09:47:08.658Z,23.58
2022-09-14T09:48:10.242Z,23.57
2022-09-14T09:49:16.302Z,23.58
2022-09-14T09:50:18.732Z,23.58
2022-09-14T09:51:30.350Z,23.55
2022-09-14T09:52:33.068Z,23.55
2022-09-14T09:53:34.907Z,23.51
2022-09-14T09:54:36.329Z,23.54
2022-09-14T09:55:38.358Z,23.53
2022-09-14T09:56:58.321Z,23.55
2022-09-14T09:58:15.511Z,23.55
2022-09-14T09:59:27.113Z,23.56
2022-09-14T10:00:29.848Z,23.57
2022-09-14T10:01:32.285Z,23.55
2022-09-14T10:02:33.991Z,23.58
2022-09-14T10:03:38.442Z,23.55
2022-09-14T10:04:40.005Z,23.55
2022-09-14T10:05:41.507Z,23.59
2022-09-14T10:06:44.071Z,23.62
2022-09-14T10:07:56.402Z,23.64
2022-09-14T10:08:57.965Z,23.72
2022-09-14T10:10:04.032Z,23.77
2022-09-14T10:11:05.522Z,23.79
2022-09-14T10:12:06.998Z,23.85
2022-09-14T10:13:20.632Z,23.88
2022-09-14T10:14:25.271Z,23.95
2022-09-14T10:15:27.999Z,24.04
2022-09-14T10:16:39.200Z,24.05
2022-09-14T10:17:40.990Z,24.05
2022-09-14T10:18:49.459Z,24.09
2022-09-14T10:19:52.277Z,24.16
2022-09-14T10:20:53.695Z,24.26
2022-09-14T10:22:02.503Z,24.39
2022-09-14T10:23:18.892Z,24.47
2022-09-14T10:24:21.106Z,24.64
2022-09-14T10:25:24.069Z,24.81
2022-09-14T10:26:25.918Z,24.90
2022-09-14T10:27:52.854Z,24.97
2022-09-14T10:28:54.488Z,25.09
2022-09-14T10:29:56.011Z,25.18
2022-09-14T10:31:06.484Z,25.27
2022-09-14T10:32:34.113Z,25.43
2022-09-14T10:33:35.554Z,25.65
2022-09-14T10:34:37.039Z,25.80
2022-09-14T10:35:41.424Z,25.96
2022-09-14T10:36:44.364Z,26.02
2022-09-14T10:37:50.604Z,26.11
2022-09-14T10:38:58.598Z,26.24
2022-09-14T10:40:06.158Z,26.42
2022-09-14T10:41:10.634Z,26.49
2022-09-14T10:42:17.680Z,26.59
2022-09-14T10:43:24.582Z,26.60
2022-09-14T10:44:44.660Z,26.67
2022-09-14T10:45:53.012Z,26.71
2022-09-14T10:46:54.567Z,26.75
2022-09-14T10:47:56.042Z,26.73
2022-09-14T10:49:06.680Z,26.74
2022-09-14T10:50:27.091Z,26.72
2022-09-14T10:51:32.598Z,26.80
2022-09-14T10:52:37.103Z,26.86
2022-09-14T10:53:41.685Z,26.92
2022-09-14T10:54:46.090Z,26.92
2022-09-14T10:55:50.270Z,26.91
2022-09-14T10:57:05.432Z,26.99
2022-09-14T10:58:18.082Z,27.07
2022-09-14T10:59:27.742Z,27.06
2022-09-14T11:00:31.147Z,27.15
2022-09-14T11:02:07.964Z,27.26
2022-09-14T11:03:12.569Z,27.49
2022-09-14T11:04:14.419Z,27.63
2022-09-14T11:05:20.711Z,27.75
2022-09-14T11:06:25.096Z,27.87
2022-09-14T11:07:45.481Z,27.96
2022-09-14T11:08:49.130Z,28.04
2022-09-14T11:10:11.717Z,28.05
2022-09-14T11:11:23.214Z,28.16
2022-09-14T11:12:26.726Z,28.20
2022-09-14T11:13:34.010Z,28.26
2022-09-14T11:14:53.940Z,28.30
2022-09-14T11:15:58.833Z,28.40
2022-09-14T11:17:02.913Z,28.40
2022-09-14T11:18:07.240Z,28.42
2022-09-14T11:19:31.835Z,28.42
2022-09-14T11:20:48.227Z,28.47
2022-09-14T11:21:56.172Z,28.48
2022-09-14T11:23:11.682Z,28.51
2022-09-14T11:24:18.843Z,28.50
2022-09-14T11:25:23.099Z,28.52
2022-09-14T11:26:26.433Z,28.52
2022-09-14T11:27:44.603Z,28.53
2022-09-14T11:28:52.724Z,28.54
2022-09-14T11:29:56.219Z,28.47
2022-09-14T11:31:10.762Z,28.48
2022-09-14T11:32:32.544Z,28.48
2022-09-14T11:33:35.703Z,28.46
2022-09-14T11:34:43.923Z,28.46
2022-09-14T11:35:58.727Z,28.44
2022-09-14T11:37:03.543Z,28.42
2022-09-14T11:38:09.033Z,28.39
2022-09-14T11:39:13.617Z,28.36
2022-09-14T11:40:26.625Z,28.35
2022-09-14T11:41:32.458Z,28.33
2022-09-14T11:42:35.843Z,28.27
2022-09-14T11:43:46.243Z,28.26
2022-09-14T11:44:47.739Z,28.23
2022-09-14T11:45:52.988Z,28.19
2022-09-14T11:46:57.599Z,28.20
2022-09-14T11:48:38.296Z,28.20
2022-09-14T11:49:34.524Z,28.19
2022-09-14T11:50:35.983Z,28.17
2022-09-14T11:51:48.676Z,28.11
2022-09-14T11:52:53.271Z,28.09
2022-09-14T11:53:54.806Z,28.07
2022-09-14T11:54:56.625Z,28.07
2022-09-14T11:55:58.126Z,28.05
2022-09-14T11:57:03.108Z,27.98
2022-09-14T11:58:05.082Z,27.97
2022-09-14T11:59:07.116Z,27.97
2022-09-14T12:00:10.248Z,27.98
2022-09-14T12:01:29.990Z,27.98
2022-09-14T12:02:37.482Z,27.98
2022-09-14T12:03:51.140Z,27.98
2022-09-14T12:05:08.108Z,27.97
2022-09-14T12:06:29.817Z,27.96
2022-09-14T12:07:42.239Z,27.97
2022-09-14T12:08:43.880Z,27.96
2022-09-14T12:09:45.434Z,27.95
2022-09-14T12:11:05.455Z,27.95
2022-09-14T12:12:08.827Z,27.95
2022-09-14T12:13:10.251Z,27.94
2022-09-14T12:14:23.963Z,27.94
2022-09-14T12:15:26.054Z,27.88
2022-09-14T12:16:30.580Z,27.92
2022-09-14T12:17:41.703Z,27.89
2022-09-14T12:18:43.701Z,27.90
2022-09-14T12:19:45.351Z,27.91
2022-09-14T12:20:48.316Z,27.89
2022-09-14T12:21:49.773Z,27.90
2022-09-14T12:22:51.267Z,27.91
2022-09-14T12:23:57.155Z,27.89
2022-09-14T12:25:10.424Z,27.83
2022-09-14T12:26:12.234Z,27.80
2022-09-14T12:27:22.876Z,27.79
2022-09-14T12:28:36.817Z,27.75
2022-09-14T12:29:38.295Z,27.76
2022-09-14T12:30:40.884Z,27.73
2022-09-14T12:31:47.440Z,27.70
2022-09-14T12:32:49.180Z,27.70
2022-09-14T12:34:06.057Z,27.68
2022-09-14T12:35:37.184Z,27.66
2022-09-14T12:36:38.683Z,27.60
2022-09-14T12:37:40.118Z,27.59
2022-09-14T12:39:04.774Z,27.59
2022-09-14T12:40:21.476Z,27.54
2022-09-14T12:41:23.002Z,27.55
2022-09-14T12:42:25.688Z,27.54
2022-09-14T12:43:33.151Z,27.56
2022-09-14T12:44:38.699Z,27.56
2022-09-14T12:45:53.415Z,27.56
2022-09-14T12:46:54.887Z,27.55
2022-09-14T12:47:56.330Z,27.50
2022-09-14T12:49:03.056Z,27.49
2022-09-14T12:50:24.822Z,27.47
2022-09-14T12:51:29.435Z,27.47
2022-09-14T12:52:40.262Z,27.47
2022-09-14T12:53:41.674Z,27.41
2022-09-14T12:54:52.185Z,27.41
2022-09-14T12:55:55.903Z,27.37
2022-09-14T12:57:03.482Z,27.35
2022-09-14T12:58:23.612Z,27.31
2022-09-14T12:59:37.287Z,27.28
2022-09-14T13:00:48.974Z,27.25
2022-09-14T13:01:53.398Z,27.27
2022-09-14T13:02:54.968Z,27.26
2022-09-14T13:03:57.039Z,27.17
2022-09-14T13:04:58.485Z,27.13
2022-09-14T13:05:59.995Z,27.12
2022-09-14T13:07:02.125Z,27.13
2022-09-14T13:08:08.460Z,27.16
2022-09-14T13:09:13.914Z,27.12
2022-09-14T13:10:34.322Z,27.11
2022-09-14T13:11:36.855Z,27.10
2022-09-14T13:12:41.919Z,27.08
2022-09-14T13:13:43.427Z,27.06
2022-09-14T13:14:49.139Z,27.07
2022-09-14T13:15:52.094Z,27.08
2022-09-14T13:16:53.638Z,27.06
2022-09-14T13:18:00.958Z,26.89
2022-09-14T13:19:04.705Z,27.03
2022-09-14T13:20:15.637Z,26.97
2022-09-14T13:21:17.243Z,26.93
2022-09-14T13:22:19.463Z,26.91
2022-09-14T13:23:21.356Z,26.92
2022-09-14T13:24:31.262Z,26.88
2022-09-14T13:25:32.959Z,26.89
2022-09-14T13:26:35.030Z,26.90
2022-09-14T13:27:37.072Z,26.91
2022-09-14T13:28:38.691Z,26.94
2022-09-14T13:29:40.233Z,26.95
2022-09-14T13:30:44.413Z,26.96
2022-09-14T13:31:45.891Z,26.97
2022-09-14T13:32:50.915Z,26.97
2022-09-14T13:33:52.984Z,26.96
2022-09-14T13:34:55.001Z,26.92
2022-09-14T13:36:00.291Z,26.93
2022-09-14T13:37:01.762Z,26.94
2022-09-14T13:38:09.987Z,26.93
2022-09-14T13:39:37.774Z,26.95
2022-09-14T13:40:39.369Z,26.96
2022-09-14T13:41:42.471Z,26.94
2022-09-14T13:42:43.910Z,26.96
2022-09-14T13:43:47.285Z,26.98
2022-09-14T13:44:49.843Z,26.98
2022-09-14T13:45:51.432Z,27.01
2022-09-14T13:46:53.162Z,27.03
2022-09-14T13:47:54.675Z,27.02
2022-09-14T13:48:56.147Z,27.04
2022-09-14T13:49:58.332Z,27.03
2022-09-14T13:50:59.799Z,27.04
2022-09-14T13:52:19.453Z,26.96